Time;durP1;ratioP1;P1;durP2;ratioP2;P2;SDS_P1;SDS_P2;PMS_P1;PMS_P2;Temp;Humidity;BMP_temperature;BMP_pressure;BME280_temperature;BME280_humidity;BME280_pressure;Samples;Min_cycle;Max_cycle;Signal;HPM_P1;HPM_P2
2023/09/05 00:01:29;;;;;;;5.90;3.72;;;15.30;99.90;;;;;;5047863;28;20025;-52
2023/09/05 00:03:57;;;;;;;4.38;3.63;;;15.20;99.90;;;;;;5032906;28;20021;-52
2023/09/05 00:06:24;;;;;;;4.63;4.18;;;15.20;99.90;;;;;;5026596;28;20108;-52
2023/09/05 00:08:49;;;;;;;4.55;4.07;;;15.20;99.90;;;;;;5032466;28;20018;-51
2023/09/05 00:11:15;;;;;;;7.65;4.35;;;15.20;99.90;;;;;;5021992;28;20025;-52
2023/09/05 00:13:40;;;;;;;4.80;4.00;;;15.20;99.90;;;;;;5029981;28;20497;-52
2023/09/05 00:16:06;;;;;;;5.18;3.85;;;15.10;99.90;;;;;;5030200;28;20406;-51
2023/09/05 00:18:31;;;;;;;7.53;4.45;;;15.10;99.90;;;;;;5047678;28;20037;-52
2023/09/05 00:20:57;;;;;;;5.05;4.32;;;15.10;99.90;;;;;;5032239;28;20025;-52
2023/09/05 00:23:26;;;;;;;8.25;4.38;;;15.10;99.90;;;;;;5032754;28;20029;-53
2023/09/05 00:25:52;;;;;;;4.93;4.30;;;15.00;99.90;;;;;;5024798;28;20441;-53
2023/09/05 00:28:19;;;;;;;5.05;4.55;;;15.00;99.90;;;;;;5026984;28;20494;-53
2023/09/05 00:30:45;;;;;;;5.50;4.18;;;15.00;99.90;;;;;;5032413;28;20071;-54
2023/09/05 00:33:10;;;;;;;6.38;4.10;;;15.00;99.90;;;;;;5032484;28;20022;-54
2023/09/05 00:35:36;;;;;;;4.50;3.95;;;15.00;99.90;;;;;;5030756;28;20437;-54
2023/09/05 00:38:01;;;;;;;4.82;4.20;;;14.90;99.90;;;;;;5030280;28;20087;-54
2023/09/05 00:40:28;;;;;;;5.82;4.03;;;14.90;99.90;;;;;;5032115;28;20033;-54
2023/09/05 00:42:53;;;;;;;7.20;4.45;;;14.90;99.90;;;;;;5031949;28;20436;-54
2023/09/05 00:45:19;;;;;;;11.35;4.95;;;14.90;99.90;;;;;;5030822;28;20097;-53
2023/09/05 00:47:47;;;;;;;7.00;4.35;;;14.90;99.90;;;;;;5021434;28;20025;-54
2023/09/05 00:50:18;;;;;;;4.80;4.25;;;14.90;99.90;;;;;;5023960;28;20017;-53
2023/09/05 00:52:44;;;;;;;5.65;4.53;;;14.90;99.90;;;;;;5022216;28;20022;-54
2023/09/05 00:55:10;;;;;;;5.60;4.43;;;14.90;99.90;;;;;;5023293;28;20025;-52
2023/09/05 00:57:37;;;;;;;4.72;4.03;;;14.90;99.90;;;;;;5024793;28;20108;-54
2023/09/05 01:00:05;;;;;;;5.65;4.28;;;14.90;99.90;;;;;;5015448;28;20038;-58
2023/09/05 01:02:30;;;;;;;3.53;3.20;;;14.90;99.90;;;;;;5027507;28;20082;-53
2023/09/05 01:04:56;;;;;;;4.55;4.00;;;14.90;99.90;;;;;;5014622;28;20128;-53
2023/09/05 01:07:28;;;;;;;5.45;3.83;;;14.80;99.90;;;;;;5045438;28;20395;-53
2023/09/05 01:10:00;;;;;;;4.07;3.47;;;14.80;99.90;;;;;;5019910;28;20109;-53
2023/09/05 01:12:26;;;;;;;4.45;3.90;;;14.80;99.90;;;;;;5011547;28;20022;-53
2023/09/05 01:14:53;;;;;;;5.20;4.38;;;14.80;99.90;;;;;;5027625;28;20156;-53
2023/09/05 01:17:18;;;;;;;4.50;3.67;;;14.70;99.90;;;;;;5010931;28;20602;-53
2023/09/05 01:19:45;;;;;;;5.72;3.75;;;14.80;99.90;;;;;;5031554;28;20037;-53
2023/09/05 01:22:21;;;;;;;5.88;4.80;;;14.80;99.90;;;;;;5030061;28;20183;-53
2023/09/05 01:24:49;;;;;;;4.28;3.88;;;14.80;99.90;;;;;;5030621;28;20013;-54
2023/09/05 01:27:17;;;;;;;3.85;3.45;;;14.80;99.90;;;;;;5031176;28;20029;-53
2023/09/05 01:29:44;;;;;;;4.45;3.83;;;14.80;99.90;;;;;;5029527;28;20507;-54
2023/09/05 01:32:10;;;;;;;4.80;4.00;;;14.90;99.90;;;;;;5031009;28;20079;-53
2023/09/05 01:34:36;;;;;;;4.30;3.90;;;14.80;99.90;;;;;;5030837;28;20442;-54
2023/09/05 01:37:01;;;;;;;4.45;3.60;;;14.80;99.90;;;;;;5030783;28;20029;-55
2023/09/05 01:39:27;;;;;;;4.35;3.95;;;14.80;99.90;;;;;;5026346;28;20050;-54
2023/09/05 01:41:53;;;;;;;6.10;4.40;;;14.80;99.90;;;;;;5029210;28;20032;-54
2023/09/05 01:44:19;;;;;;;4.45;4.00;;;14.80;99.90;;;;;;5030993;28;20036;-54
2023/09/05 01:46:44;;;;;;;6.15;4.35;;;14.80;99.90;;;;;;5030289;28;20689;-54
2023/09/05 01:49:10;;;;;;;4.93;4.32;;;14.70;99.90;;;;;;5030176;28;20033;-54
2023/09/05 01:51:36;;;;;;;4.00;3.65;;;14.70;99.90;;;;;;5029143;28;20021;-54
2023/09/05 01:54:02;;;;;;;4.53;4.13;;;14.70;99.90;;;;;;5029340;28;20100;-54
2023/09/05 01:56:27;;;;;;;4.80;3.92;;;14.70;99.90;;;;;;5030518;28;20078;-54
2023/09/05 01:58:53;;;;;;;5.25;4.20;;;14.60;99.90;;;;;;5030485;28;20025;-54
2023/09/05 02:01:19;;;;;;;4.70;4.10;;;14.60;99.90;;;;;;5023472;28;20117;-54
2023/09/05 02:03:45;;;;;;;5.53;4.85;;;14.60;99.90;;;;;;5030366;28;20161;-55
2023/09/05 02:06:12;;;;;;;5.57;4.82;;;14.60;99.90;;;;;;5029831;28;20079;-54
2023/09/05 02:08:39;;;;;;;5.38;4.75;;;14.60;99.90;;;;;;5030721;28;20049;-54
2023/09/05 02:11:04;;;;;;;7.22;4.88;;;14.60;99.90;;;;;;5028719;28;20501;-54
2023/09/05 02:13:30;;;;;;;4.85;4.35;;;14.60;99.90;;;;;;5045645;28;20026;-54
2023/09/05 02:15:56;;;;;;;5.80;4.57;;;14.60;99.90;;;;;;5029980;28;20110;-54
2023/09/05 02:18:21;;;;;;;5.03;4.53;;;14.60;99.90;;;;;;5030564;28;20096;-55
2023/09/05 02:20:47;;;;;;;6.40;5.00;;;14.60;99.90;;;;;;5028695;28;20387;-54
2023/09/05 02:23:13;;;;;;;4.82;4.32;;;14.50;99.90;;;;;;5022481;28;20052;-54
2023/09/05 02:25:38;;;;;;;5.35;4.70;;;14.50;99.90;;;;;;5028336;28;20017;-54
2023/09/05 02:28:04;;;;;;;11.55;4.72;;;14.50;99.90;;;;;;5045339;28;20025;-54
2023/09/05 02:30:30;;;;;;;4.72;4.03;;;14.40;99.90;;;;;;5028071;28;20049;-54
2023/09/05 02:32:56;;;;;;;6.78;4.93;;;14.50;99.90;;;;;;5028056;28;20022;-54
2023/09/05 02:35:23;;;;;;;6.15;4.90;;;14.50;99.90;;;;;;5029439;28;20083;-54
2023/09/05 02:37:50;;;;;;;5.47;4.85;;;14.40;99.90;;;;;;5029608;28;20116;-54
2023/09/05 02:40:16;;;;;;;5.90;4.55;;;14.40;99.90;;;;;;5029855;28;20033;-55
2023/09/05 02:42:42;;;;;;;5.38;4.68;;;14.40;99.90;;;;;;5023509;28;20497;-54
2023/09/05 02:45:08;;;;;;;5.25;4.75;;;14.40;99.90;;;;;;5028783;28;20026;-54
2023/09/05 02:47:33;;;;;;;5.60;4.80;;;14.40;99.90;;;;;;5029823;28;20107;-54
2023/09/05 02:49:59;;;;;;;8.75;5.50;;;14.30;99.90;;;;;;5020994;28;20017;-54
2023/09/05 02:52:25;;;;;;;5.88;4.80;;;14.30;99.90;;;;;;5029830;28;20059;-54
2023/09/05 02:54:50;;;;;;;5.57;4.50;;;14.40;99.90;;;;;;5044517;28;20550;-54
2023/09/05 02:57:16;;;;;;;6.85;5.43;;;14.30;99.90;;;;;;5045086;28;20108;-54
2023/09/05 02:59:42;;;;;;;8.00;5.53;;;14.30;99.90;;;;;;5024496;28;20058;-54
2023/09/05 03:02:07;;;;;;;4.85;4.35;;;14.30;99.90;;;;;;5029054;28;20464;-54
2023/09/05 03:04:33;;;;;;;5.15;4.65;;;14.30;99.90;;;;;;5029154;28;20429;-53
2023/09/05 03:07:01;;;;;;;6.40;5.18;;;14.30;99.90;;;;;;5027556;28;20037;-53
2023/09/05 03:09:27;;;;;;;5.93;4.85;;;14.30;99.90;;;;;;5022956;28;20025;-53
2023/09/05 03:11:52;;;;;;;7.45;5.47;;;14.20;99.90;;;;;;5028164;28;20029;-54
2023/09/05 03:14:18;;;;;;;5.78;4.85;;;14.20;99.90;;;;;;5029294;28;20018;-53
2023/09/05 03:16:43;;;;;;;7.10;5.75;;;14.20;99.90;;;;;;5044512;28;20029;-54
2023/09/05 03:19:11;;;;;;;9.55;6.95;;;14.30;99.90;;;;;;5028775;28;20032;-54
2023/09/05 03:21:37;;;;;;;8.25;7.18;;;14.30;99.90;;;;;;5024412;28;20069;-53
2023/09/05 03:24:03;;;;;;;8.35;6.55;;;14.40;99.90;;;;;;5020994;28;20093;-53
2023/09/05 03:26:29;;;;;;;8.98;6.88;;;14.40;99.90;;;;;;5027646;28;20108;-53
2023/09/05 03:28:55;;;;;;;10.52;6.63;;;14.40;99.90;;;;;;5029169;28;20571;-53
2023/09/05 03:31:22;;;;;;;7.35;5.90;;;14.40;99.90;;;;;;5026028;28;20021;-53
2023/09/05 03:33:47;;;;;;;8.15;6.32;;;14.40;99.90;;;;;;5032873;28;20096;-54
2023/09/05 03:36:14;;;;;;;11.07;7.15;;;14.40;99.90;;;;;;5032729;28;20435;-54
2023/09/05 03:38:39;;;;;;;7.47;6.43;;;14.40;99.90;;;;;;5048362;28;20040;-53
2023/09/05 03:41:05;;;;;;;11.07;7.03;;;14.30;99.90;;;;;;5030767;28;20029;-53
2023/09/05 03:43:31;;;;;;;9.70;6.80;;;14.40;99.90;;;;;;5017022;28;20302;-54
2023/09/05 03:45:57;;;;;;;16.10;7.75;;;14.40;99.90;;;;;;5025167;28;20022;-53
2023/09/05 03:48:22;;;;;;;13.82;8.52;;;14.30;99.90;;;;;;5033146;28;20036;-53
2023/09/05 03:50:48;;;;;;;9.05;6.95;;;14.30;99.90;;;;;;5030379;28;20049;-53
2023/09/05 03:53:13;;;;;;;8.90;8.00;;;14.40;99.90;;;;;;5024845;28;20109;-53
2023/09/05 03:55:39;;;;;;;7.88;6.60;;;14.30;99.90;;;;;;5019340;28;20022;-54
2023/09/05 03:58:04;;;;;;;8.57;7.30;;;14.30;99.90;;;;;;5030714;28;20037;-53
2023/09/05 04:00:33;;;;;;;9.77;8.07;;;14.30;99.90;;;;;;5032920;28;20424;-53
2023/09/05 04:03:02;;;;;;;15.93;7.35;;;14.30;99.90;;;;;;5023550;28;20453;-52
2023/09/05 04:05:28;;;;;;;10.20;7.93;;;14.30;99.90;;;;;;5025529;28;20394;-59
2023/09/05 04:07:54;;;;;;;9.93;7.68;;;14.30;99.90;;;;;;5029660;28;20022;-60
2023/09/05 04:10:20;;;;;;;16.40;8.63;;;14.30;99.90;;;;;;5026236;28;20105;-59
2023/09/05 04:12:45;;;;;;;10.20;7.55;;;14.30;99.90;;;;;;5023888;28;20026;-60
2023/09/05 04:15:11;;;;;;;9.73;8.15;;;14.20;99.90;;;;;;5023734;28;20060;-60
2023/09/05 04:17:37;;;;;;;11.68;9.35;;;14.20;99.90;;;;;;5025198;28;20033;-59
2023/09/05 04:20:06;;;;;;;11.93;8.90;;;14.20;99.90;;;;;;5022969;28;20395;-60
2023/09/05 04:22:32;;;;;;;10.77;8.10;;;14.20;99.90;;;;;;5017727;28;20029;-60
2023/09/05 04:24:57;;;;;;;10.70;8.80;;;14.20;99.90;;;;;;5018806;28;20378;-60
2023/09/05 04:27:23;;;;;;;9.68;7.75;;;14.20;99.90;;;;;;5022244;28;20075;-60
2023/09/05 04:29:51;;;;;;;11.10;8.32;;;14.20;99.90;;;;;;5040023;28;20563;-60
2023/09/05 04:32:18;;;;;;;10.48;8.27;;;14.20;99.90;;;;;;5029545;28;20017;-60
2023/09/05 04:34:43;;;;;;;15.73;9.57;;;14.20;99.90;;;;;;5021250;28;20022;-60
2023/09/05 04:37:09;;;;;;;10.98;8.25;;;14.20;99.90;;;;;;5019146;28;20044;-60
2023/09/05 04:39:34;;;;;;;12.18;8.80;;;14.10;99.90;;;;;;5020336;28;20084;-60
2023/09/05 04:42:00;;;;;;;10.43;8.40;;;14.20;99.90;;;;;;5017427;28;20019;-60
2023/09/05 04:44:27;;;;;;;13.63;8.43;;;14.10;99.90;;;;;;5020007;28;20030;-59
2023/09/05 04:47:12;;;;;;;12.55;7.85;;;14.10;99.90;;;;;;5017461;28;20053;-59
2023/09/05 04:49:38;;;;;;;8.75;7.00;;;14.10;99.90;;;;;;5024088;28;20044;-60
2023/09/05 04:52:04;;;;;;;10.00;7.43;;;14.00;99.90;;;;;;5039649;28;20021;-60
2023/09/05 04:54:29;;;;;;;8.75;7.30;;;14.00;99.90;;;;;;5018164;28;20411;-59
2023/09/05 04:56:56;;;;;;;12.15;8.10;;;14.00;99.90;;;;;;5028057;28;20028;-59
2023/09/05 04:59:21;;;;;;;11.15;8.90;;;14.00;99.90;;;;;;5024664;28;20080;-59
2023/09/05 05:01:47;;;;;;;10.65;7.47;;;13.90;99.90;;;;;;5031779;28;20025;-59
2023/09/05 05:04:12;;;;;;;11.10;8.30;;;13.90;99.90;;;;;;5026181;28;20298;-59
2023/09/05 05:06:38;;;;;;;15.15;8.80;;;14.00;99.90;;;;;;5018743;28;20065;-59
2023/09/05 05:09:03;;;;;;;12.50;8.80;;;14.00;99.90;;;;;;5027928;28;20391;-59
2023/09/05 05:11:29;;;;;;;15.25;10.30;;;14.10;99.90;;;;;;5043224;28;20021;-59
2023/09/05 05:13:54;;;;;;;10.57;8.48;;;14.10;99.90;;;;;;5026681;28;20395;-59
2023/09/05 05:16:20;;;;;;;10.45;8.80;;;14.10;99.90;;;;;;5022126;28;20033;-60
2023/09/05 05:18:45;;;;;;;11.35;8.65;;;14.10;99.90;;;;;;5022016;28;20033;-59
2023/09/05 05:21:11;;;;;;;11.15;8.48;;;14.10;99.90;;;;;;5016994;28;20112;-59
2023/09/05 05:23:36;;;;;;;11.70;8.75;;;14.10;99.90;;;;;;5019787;28;20052;-59
2023/09/05 05:26:02;;;;;;;10.43;8.57;;;14.10;99.90;;;;;;5020957;28;20075;-59
2023/09/05 05:28:28;;;;;;;8.77;7.75;;;14.10;99.90;;;;;;5029104;28;20037;-59
2023/09/05 05:30:53;;;;;;;11.43;8.35;;;14.10;99.90;;;;;;5011675;28;20057;-59
2023/09/05 05:33:19;;;;;;;13.07;9.77;;;14.10;99.90;;;;;;5027918;28;20025;-59
2023/09/05 05:35:51;;;;;;;13.25;9.27;;;14.20;99.90;;;;;;5022634;28;20025;-59
2023/09/05 05:38:17;;;;;;;13.48;8.77;;;14.20;99.90;;;;;;5021922;28;20573;-60
2023/09/05 05:40:42;;;;;;;11.38;8.77;;;14.30;99.90;;;;;;5022063;28;20030;-61
2023/09/05 05:43:08;;;;;;;9.18;7.75;;;14.30;99.90;;;;;;5026107;28;20025;-60
2023/09/05 05:45:33;;;;;;;10.65;8.07;;;14.30;99.90;;;;;;5025836;28;20040;-60
2023/09/05 05:47:59;;;;;;;9.13;7.55;;;14.30;99.90;;;;;;5029011;28;20429;-60
2023/09/05 05:50:24;;;;;;;10.98;7.78;;;14.40;99.90;;;;;;5023381;28;20025;-61
2023/09/05 05:52:50;;;;;;;11.18;9.18;;;14.40;99.90;;;;;;5026335;28;20021;-60
2023/09/05 05:55:15;;;;;;;12.75;9.57;;;14.40;99.90;;;;;;5029626;28;20120;-61
2023/09/05 05:57:42;;;;;;;12.45;9.20;;;14.50;99.90;;;;;;5035122;28;20670;-60
2023/09/05 06:00:08;;;;;;;9.85;8.35;;;14.50;99.90;;;;;;5037777;28;20034;-60
2023/09/05 06:02:33;;;;;;;9.98;8.88;;;14.60;99.90;;;;;;5022991;28;20025;-60
2023/09/05 06:04:59;;;;;;;9.80;8.38;;;14.60;99.90;;;;;;5037602;28;20033;-61
2023/09/05 06:07:25;;;;;;;9.60;7.85;;;14.60;99.90;;;;;;5027045;28;20026;-63
2023/09/05 06:09:51;;;;;;;10.88;7.63;;;14.70;99.90;;;;;;5030198;28;20021;-61
2023/09/05 06:12:16;;;;;;;9.50;7.50;;;14.70;99.90;;;;;;5021394;28;20101;-61
2023/09/05 06:14:42;;;;;;;12.13;8.02;;;14.80;99.90;;;;;;5025673;28;20028;-61
2023/09/05 06:17:07;;;;;;;9.55;7.93;;;14.80;99.90;;;;;;5028055;28;20037;-61
2023/09/05 06:19:33;;;;;;;8.77;7.78;;;14.90;99.90;;;;;;5020925;28;20029;-61
2023/09/05 06:21:58;;;;;;;10.43;7.85;;;14.90;99.90;;;;;;5033343;28;20034;-61
2023/09/05 06:24:25;;;;;;;9.63;7.70;;;14.90;99.90;;;;;;5029810;28;20167;-61
2023/09/05 06:26:50;;;;;;;9.30;7.30;;;15.00;99.90;;;;;;5025292;28;20021;-61
2023/09/05 06:29:16;;;;;;;13.30;9.57;;;15.10;99.90;;;;;;5027056;28;20022;-61
2023/09/05 06:31:42;;;;;;;12.10;8.95;;;15.10;99.90;;;;;;5030232;28;20096;-61
2023/09/05 06:34:07;;;;;;;14.07;8.60;;;15.20;99.90;;;;;;5030067;28;20375;-61
2023/09/05 06:36:33;;;;;;;9.55;7.32;;;15.30;99.90;;;;;;5029108;28;20144;-61
2023/09/05 06:38:58;;;;;;;14.00;9.35;;;15.30;99.90;;;;;;5021991;28;20032;-61
2023/09/05 06:41:24;;;;;;;11.48;8.30;;;15.40;99.90;;;;;;5017802;28;20518;-61
2023/09/05 06:43:50;;;;;;;11.55;7.45;;;15.40;99.90;;;;;;5009959;28;20026;-61
2023/09/05 06:46:15;;;;;;;13.27;7.72;;;15.50;99.90;;;;;;5009384;28;20018;-61
2023/09/05 06:48:41;;;;;;;9.95;7.00;;;15.60;99.90;;;;;;5014309;28;20057;-61
2023/09/05 06:51:06;;;;;;;10.25;7.55;;;15.70;99.90;;;;;;5025479;28;20100;-61
2023/09/05 06:53:33;;;;;;;11.10;6.82;;;15.80;99.90;;;;;;5029521;28;20064;-61
2023/09/05 06:55:58;;;;;;;8.50;6.28;;;15.90;99.90;;;;;;5029022;28;20018;-61
2023/09/05 06:58:25;;;;;;;8.63;7.00;;;16.00;99.90;;;;;;5028735;28;20029;-61
2023/09/05 07:00:54;;;;;;;10.18;7.38;;;16.10;99.90;;;;;;5026963;28;20052;-61
2023/09/05 07:03:25;;;;;;;6.72;5.55;;;16.10;99.90;;;;;;5023234;28;20298;-61
2023/09/05 07:05:52;;;;;;;9.32;6.47;;;16.20;99.90;;;;;;5020295;28;20037;-62
2023/09/05 07:08:18;;;;;;;6.57;5.50;;;16.30;99.90;;;;;;5024196;28;20418;-61
2023/09/05 07:10:43;;;;;;;7.15;5.55;;;16.40;99.90;;;;;;5015200;28;20054;-62
2023/09/05 07:13:09;;;;;;;6.97;5.53;;;16.50;99.90;;;;;;5025433;28;20490;-61
2023/09/05 07:15:35;;;;;;;7.65;5.35;;;16.70;99.90;;;;;;5023652;28;20061;-61
2023/09/05 07:18:00;;;;;;;9.00;4.65;;;16.70;99.90;;;;;;5027718;28;20506;-61
2023/09/05 07:20:26;;;;;;;6.88;5.18;;;16.80;99.90;;;;;;5027103;28;20040;-61
2023/09/05 07:22:51;;;;;;;9.40;5.63;;;16.90;99.90;;;;;;5027412;28;20034;-62
2023/09/05 07:25:18;;;;;;;11.85;5.10;;;17.10;99.90;;;;;;5026989;28;20137;-62
2023/09/05 07:27:43;;;;;;;4.93;4.32;;;17.60;99.90;;;;;;5027648;28;20071;-62
2023/09/05 07:30:09;;;;;;;5.97;4.22;;;18.20;99.90;;;;;;5019880;28;20108;-62
2023/09/05 07:32:34;;;;;;;7.80;3.42;;;19.00;99.90;;;;;;5037899;28;20471;-62
2023/09/05 07:35:01;;;;;;;3.83;3.40;;;19.80;99.90;;;;;;5041246;28;20025;-60
2023/09/05 07:37:26;;;;;;;5.13;3.78;;;20.20;99.90;;;;;;5025606;28;20026;-62
2023/09/05 07:39:52;;;;;;;4.60;3.55;;;20.40;99.90;;;;;;5028376;28;20033;-61
2023/09/05 07:42:18;;;;;;;4.20;3.20;;;20.40;99.90;;;;;;5025594;28;20068;-61
2023/09/05 07:44:44;;;;;;;4.18;3.78;;;20.30;99.90;;;;;;5044049;28;20029;-61
2023/09/05 07:47:09;;;;;;;3.58;3.25;;;20.20;99.90;;;;;;5029065;28;20053;-61
2023/09/05 07:49:36;;;;;;;6.15;3.33;;;20.60;99.90;;;;;;5028984;28;20013;-61
2023/09/05 07:52:02;;;;;;;5.88;3.00;;;21.30;99.90;;;;;;5020997;28;20048;-61
2023/09/05 07:54:27;;;;;;;4.55;2.80;;;22.00;99.90;;;;;;5028242;28;20044;-61
2023/09/05 07:56:53;;;;;;;5.13;3.33;;;22.80;99.90;;;;;;5044008;28;20062;-61
2023/09/05 07:59:19;;;;;;;4.70;2.78;;;23.50;99.90;;;;;;5029219;28;20033;-61
2023/09/05 08:01:44;;;;;;;5.30;3.35;;;24.20;99.90;;;;;;5027092;28;20022;-61
2023/09/05 08:04:10;;;;;;;4.60;2.60;;;24.70;99.70;;;;;;5021675;28;20036;-61
2023/09/05 08:06:35;;;;;;;2.83;2.38;;;25.00;99.40;;;;;;5028497;28;20104;-61
2023/09/05 08:09:01;;;;;;;3.58;2.72;;;25.20;99.00;;;;;;5026286;28;20083;-61
2023/09/05 08:11:27;;;;;;;3.15;2.17;;;25.90;97.70;;;;;;5013748;28;20022;-61
2023/09/05 08:13:52;;;;;;;3.45;2.40;;;26.30;96.80;;;;;;5020713;28;20100;-61
2023/09/05 08:16:18;;;;;;;2.78;2.42;;;26.30;96.80;;;;;;5019154;28;20431;-61
2023/09/05 08:18:44;;;;;;;3.47;2.20;;;26.70;96.20;;;;;;5029181;28;20029;-61
2023/09/05 08:21:09;;;;;;;5.40;2.10;;;27.80;95.30;;;;;;5031882;28;20037;-61
2023/09/05 08:23:35;;;;;;;2.33;2.03;;;29.20;92.90;;;;;;5018798;28;20479;-61
2023/09/05 08:26:00;;;;;;;3.22;2.10;;;30.40;90.60;;;;;;5021241;28;20026;-61
2023/09/05 08:28:33;;;;;;;2.38;1.80;;;31.60;88.00;;;;;;5014699;28;20051;-61
2023/09/05 08:30:59;;;;;;;2.58;1.65;;;32.80;84.00;;;;;;5025603;28;20042;-61
2023/09/05 08:33:26;;;;;;;4.10;1.88;;;33.80;79.60;;;;;;5019447;28;20056;-61
2023/09/05 08:35:53;;;;;;;2.95;2.10;;;34.50;76.50;;;;;;5020095;28;20030;-62
2023/09/05 08:38:18;;;;;;;2.45;2.20;;;35.40;72.20;;;;;;5025627;28;20033;-61
2023/09/05 08:40:47;;;;;;;3.72;2.35;;;35.90;70.40;;;;;;5023893;28;20032;-61
2023/09/05 08:43:15;;;;;;;5.13;1.90;;;36.80;68.50;;;;;;5022000;28;20022;-61
2023/09/05 08:45:44;;;;;;;3.28;1.92;;;36.90;68.00;;;;;;5020075;28;20411;-61
2023/09/05 08:48:10;;;;;;;3.42;1.83;;;37.60;65.70;;;;;;5033503;28;20057;-61
2023/09/05 08:50:36;;;;;;;4.63;2.00;;;37.60;64.70;;;;;;5028371;28;20490;-62
2023/09/05 08:53:11;;;;;;;4.97;2.60;;;37.60;65.70;;;;;;5046359;28;20112;-62
2023/09/05 08:55:39;;;;;;;2.80;2.60;;;37.80;63.50;;;;;;5027444;28;20029;-62
2023/09/05 08:58:06;;;;;;;3.17;2.28;;;37.80;63.40;;;;;;5031499;28;20252;-63
2023/09/05 09:00:32;;;;;;;2.28;1.92;;;37.80;62.80;;;;;;5031506;28;20156;-63
2023/09/05 09:02:59;;;;;;;3.67;2.53;;;38.50;62.00;;;;;;5031580;28;20021;-63
2023/09/05 09:05:24;;;;;;;3.65;2.10;;;38.80;61.20;;;;;;5024991;28;20070;-62
2023/09/05 09:07:54;;;;;;;4.55;2.17;;;39.10;60.50;;;;;;5024080;28;20033;-62
2023/09/05 09:10:20;;;;;;;2.97;2.25;;;38.80;61.80;;;;;;5045539;28;20045;-62
2023/09/05 09:12:56;;;;;;;6.22;2.40;;;39.10;61.40;;;;;;5024915;28;20031;-62
2023/09/05 09:15:26;;;;;;;4.03;2.50;;;39.20;61.20;;;;;;5023432;28;20087;-62
2023/09/05 09:17:52;;;;;;;6.38;2.30;;;39.70;59.70;;;;;;5028058;28;20032;-62
2023/09/05 09:20:19;;;;;;;3.45;2.15;;;39.50;60.00;;;;;;5031476;28;20467;-64
2023/09/05 09:22:49;;;;;;;3.42;1.88;;;39.70;58.50;;;;;;5046472;28;20514;-64
2023/09/05 09:25:22;;;;;;;3.63;1.85;;;39.20;58.00;;;;;;5023472;28;20024;-63
2023/09/05 09:27:54;;;;;;;3.60;1.80;;;39.30;59.70;;;;;;5030896;28;20509;-63
2023/09/05 09:30:26;;;;;;;3.58;2.05;;;39.80;57.20;;;;;;5043758;28;20034;-64
2023/09/05 09:32:52;;;;;;;2.85;2.08;;;40.30;56.50;;;;;;5031016;28;20336;-64
2023/09/05 09:35:18;;;;;;;2.88;1.70;;;39.80;56.30;;;;;;5043309;28;20021;-64
2023/09/05 09:37:48;;;;;;;3.42;2.40;;;40.30;56.90;;;;;;5034843;28;20041;-63
2023/09/05 09:40:17;;;;;;;4.97;3.40;;;40.10;58.00;;;;;;5041543;28;20430;-63
2023/09/05 09:42:49;;;;;;;4.10;2.40;;;40.30;57.40;;;;;;5030676;28;20025;-64
2023/09/05 09:45:19;;;;;;;4.10;2.88;;;40.60;57.50;;;;;;5020377;28;20065;-63
2023/09/05 09:47:49;;;;;;;3.10;2.17;;;40.50;57.00;;;;;;5026247;28;20030;-63
2023/09/05 09:50:19;;;;;;;1.58;1.48;;;40.50;57.60;;;;;;5029145;28;20117;-64
2023/09/05 09:52:48;;;;;;;3.05;1.80;;;40.90;56.20;;;;;;5028990;28;20017;-64
2023/09/05 09:55:14;;;;;;;5.78;1.60;;;41.80;54.40;;;;;;5028924;28;20022;-63
2023/09/05 09:58:06;;;;;;;2.42;1.70;;;41.40;55.40;;;;;;5020411;28;20503;-63
2023/09/05 10:00:32;;;;;;;3.38;1.92;;;41.80;54.80;;;;;;5027540;28;20442;-64
2023/09/05 10:03:00;;;;;;;2.00;1.52;;;41.90;51.20;;;;;;5023789;28;20022;-63
2023/09/05 10:05:26;;;;;;;1.63;1.50;;;42.60;53.00;;;;;;5030005;28;20295;-63
2023/09/05 10:07:54;;;;;;;3.15;1.40;;;42.20;52.40;;;;;;5024658;28;20060;-63
2023/09/05 10:10:20;;;;;;;1.70;1.30;;;41.90;48.50;;;;;;5030384;28;20379;-63
2023/09/05 10:12:46;;;;;;;1.52;1.20;;;41.10;49.20;;;;;;5030003;28;20022;-62
2023/09/05 10:15:15;;;;;;;3.70;1.15;;;41.60;51.40;;;;;;5029743;28;20147;-63
2023/09/05 10:17:42;;;;;;;5.53;1.30;;;41.40;50.00;;;;;;5044366;28;20022;-63
2023/09/05 10:20:09;;;;;;;1.10;1.00;;;41.00;51.50;;;;;;5030155;28;20017;-63
2023/09/05 10:22:39;;;;;;;2.05;1.20;;;41.20;49.50;;;;;;5045434;28;20513;-63
2023/09/05 10:25:07;;;;;;;2.13;1.20;;;41.70;50.10;;;;;;5029478;28;20026;-63
2023/09/05 10:27:33;;;;;;;3.00;1.42;;;41.90;49.50;;;;;;5028981;28;20025;-64
2023/09/05 10:29:59;;;;;;;1.70;1.00;;;40.90;48.60;;;;;;5021048;28;20021;-64
2023/09/05 10:32:25;;;;;;;5.43;1.30;;;40.60;49.60;;;;;;5029880;28;20029;-63
2023/09/05 10:34:51;;;;;;;4.57;2.15;;;40.50;48.80;;;;;;5044256;28;20020;-63
2023/09/05 10:37:42;;;;;;;3.08;1.63;;;40.90;50.80;;;;;;5022236;28;20029;-63
2023/09/05 10:40:09;;;;;;;5.10;1.20;;;41.60;52.50;;;;;;5019529;28;20209;-63
2023/09/05 10:42:40;;;;;;;3.17;1.17;;;41.80;50.70;;;;;;5044802;28;20033;-63
2023/09/05 10:45:21;;;;;;;2.10;1.40;;;42.70;50.70;;;;;;5023845;28;20082;-63
2023/09/05 10:47:49;;;;;;;2.33;1.10;;;42.30;48.40;;;;;;5019998;28;20037;-63
2023/09/05 10:50:19;;;;;;;2.67;1.25;;;42.00;48.70;;;;;;5020155;28;20101;-64
2023/09/05 10:52:49;;;;;;;1.42;1.00;;;41.90;48.00;;;;;;5023861;28;20028;-63
2023/09/05 10:55:29;;;;;;;1.77;0.93;;;41.40;48.80;;;;;;5023164;28;20024;-64
2023/09/05 10:57:56;;;;;;;1.60;1.23;;;41.70;49.40;;;;;;5028969;28;20029;-63
2023/09/05 11:00:26;;;;;;;3.30;1.20;;;42.20;49.90;;;;;;5025969;28;20050;-63
2023/09/05 11:02:54;;;;;;;2.72;1.70;;;41.20;48.60;;;;;;5029322;28;20021;-63
2023/09/05 11:05:20;;;;;;;0.80;0.80;;;41.30;51.30;;;;;;5027178;28;20028;-63
2023/09/05 11:07:50;;;;;;;2.65;1.25;;;41.20;50.40;;;;;;5029381;28;20021;-63
2023/09/05 11:10:25;;;;;;;1.33;1.05;;;40.50;48.60;;;;;;5023268;28;20029;-63
2023/09/05 11:12:50;;;;;;;3.20;1.20;;;39.90;48.90;;;;;;5013690;28;20029;-63
2023/09/05 11:15:35;;;;;;;2.05;1.10;;;39.70;50.80;;;;;;5028428;28;20306;-64
2023/09/05 11:18:05;;;;;;;3.05;1.10;;;39.90;50.40;;;;;;5029337;28;20395;-63
2023/09/05 11:20:47;;;;;;;3.83;1.30;;;39.60;50.40;;;;;;5022995;28;20025;-63
2023/09/05 11:23:21;;;;;;;1.35;0.90;;;39.90;50.30;;;;;;5029333;28;20094;-63
2023/09/05 11:25:55;;;;;;;2.30;1.08;;;40.50;50.30;;;;;;5021698;28;20029;-63
2023/09/05 11:28:22;;;;;;;3.92;1.05;;;41.20;50.30;;;;;;5021213;28;20030;-63
2023/09/05 11:30:52;;;;;;;1.15;1.00;;;41.30;51.00;;;;;;5023122;28;20173;-63
2023/09/05 11:33:19;;;;;;;2.13;1.00;;;41.30;50.80;;;;;;5025626;28;20372;-62
2023/09/05 11:35:45;;;;;;;1.30;1.20;;;41.50;50.80;;;;;;5028169;28;20014;-63
2023/09/05 11:38:15;;;;;;;2.45;1.27;;;42.20;50.30;;;;;;5024106;28;20442;-63
2023/09/05 11:40:55;;;;;;;1.55;1.30;;;41.40;48.00;;;;;;5024992;28;20037;-63
2023/09/05 11:43:23;;;;;;;1.35;1.10;;;42.30;49.70;;;;;;5018522;28;20041;-63
2023/09/05 11:45:58;;;;;;;1.60;1.00;;;42.50;49.50;;;;;;5020231;28;20021;-63
2023/09/05 11:48:28;;;;;;;3.83;1.17;;;42.80;48.30;;;;;;5021553;28;20021;-63
2023/09/05 11:50:53;;;;;;;1.40;0.68;;;42.50;47.50;;;;;;5017237;28;20390;-62
2023/09/05 11:53:20;;;;;;;3.05;1.10;;;42.10;48.00;;;;;;5021332;28;20128;-62
2023/09/05 11:55:47;;;;;;;1.45;0.77;;;41.80;48.00;;;;;;5023935;28;20144;-62
2023/09/05 11:58:16;;;;;;;1.15;0.90;;;41.80;46.60;;;;;;5021951;28;20030;-63
2023/09/05 12:00:44;;;;;;;1.83;1.10;;;41.20;48.10;;;;;;5020734;28;20026;-62
2023/09/05 12:03:10;;;;;;;3.47;1.27;;;41.10;48.20;;;;;;5020578;28;20037;-61
2023/09/05 12:05:37;;;;;;;2.13;1.00;;;39.80;50.30;;;;;;5019939;28;20033;-61
2023/09/05 12:08:05;;;;;;;1.30;1.20;;;40.00;49.10;;;;;;5024881;28;20514;-63
2023/09/05 12:10:38;;;;;;;;;;;39.50;51.30;;;;;;5024451;28;20028;-63
2023/09/05 12:13:04;;;;;;;3.10;1.20;;;39.60;51.70;;;;;;5024960;28;19916;-63
2023/09/05 12:15:31;;;;;;;0.80;0.80;;;39.70;54.50;;;;;;5021839;28;20487;-63
2023/09/05 12:17:59;;;;;;;4.07;1.60;;;39.60;52.50;;;;;;5021015;28;20025;-62
2023/09/05 12:20:25;;;;;;;2.72;1.35;;;38.90;50.80;;;;;;5022000;28;20601;-62
2023/09/05 12:22:51;;;;;;;2.92;1.40;;;38.50;52.60;;;;;;5019618;28;20033;-62
2023/09/05 12:25:19;;;;;;;2.10;1.40;;;37.30;52.20;;;;;;5027941;28;20519;-62
2023/09/05 12:27:45;;;;;;;2.28;1.80;;;36.60;54.40;;;;;;5022335;28;20030;-62
2023/09/05 12:30:26;;;;;;;1.98;1.30;;;36.20;55.70;;;;;;5022157;28;20103;-61
2023/09/05 12:32:59;;;;;;;1.50;1.08;;;35.70;53.60;;;;;;5018545;28;20554;-62
2023/09/05 12:35:26;;;;;;;4.65;1.52;;;35.40;56.70;;;;;;5035586;28;20024;-62
2023/09/05 12:37:53;;;;;;;2.50;1.70;;;35.40;55.50;;;;;;5019854;28;20045;-62
2023/09/05 12:40:21;;;;;;;4.00;1.70;;;34.90;57.80;;;;;;5028756;28;20025;-61
2023/09/05 12:42:47;;;;;;;3.20;1.63;;;34.60;57.80;;;;;;5030692;28;20233;-61
2023/09/05 12:45:13;;;;;;;3.92;1.42;;;34.90;58.60;;;;;;5017621;28;20534;-62